createdAt,value
2019-03-25T00:00:57.735Z,17.03
2019-03-25T00:03:27.402Z,18.00
2019-03-25T00:05:57.030Z,20.63
2019-03-25T00:08:26.626Z,18.03
2019-03-25T00:10:56.222Z,19.47
2019-03-25T00:13:25.845Z,13.90
2019-03-25T00:15:56.462Z,16.47
2019-03-25T00:18:26.181Z,18.23
2019-03-25T00:20:55.780Z,12.90
2019-03-25T00:23:25.406Z,13.07
2019-03-25T00:25:55.008Z,15.30
2019-03-25T00:28:24.640Z,14.80
2019-03-25T00:30:54.265Z,13.67
2019-03-25T00:33:23.885Z,16.30
2019-03-25T00:35:53.525Z,14.27
2019-03-25T00:38:23.119Z,17.73
2019-03-25T00:40:52.725Z,15.87
2019-03-25T00:43:22.348Z,14.93
2019-03-25T00:45:51.944Z,17.10
2019-03-25T00:48:21.568Z,15.67
2019-03-25T00:50:51.238Z,17.93
2019-03-25T00:53:20.864Z,14.67
2019-03-25T00:55:50.463Z,19.67
2019-03-25T00:58:20.661Z,15.40
2019-03-25T01:00:50.249Z,16.27
2019-03-25T01:03:19.877Z,14.27
2019-03-25T01:05:49.466Z,17.17
2019-03-25T01:08:19.126Z,14.00
2019-03-25T01:10:48.747Z,14.20
2019-03-25T01:13:18.388Z,12.27
2019-03-25T01:15:48.047Z,14.43
2019-03-25T01:18:17.827Z,13.37
2019-03-25T01:20:47.490Z,12.83
2019-03-25T01:23:17.105Z,16.47
2019-03-25T01:25:46.693Z,14.30
2019-03-25T01:28:16.362Z,14.00
2019-03-25T01:30:45.946Z,14.93
2019-03-25T01:33:15.878Z,16.57
2019-03-25T01:35:45.495Z,13.50
2019-03-25T01:38:15.084Z,14.67
2019-03-25T01:40:44.716Z,17.30
2019-03-25T01:43:14.294Z,11.83
2019-03-25T01:45:43.914Z,15.77
2019-03-25T01:48:13.538Z,11.17
2019-03-25T01:50:43.125Z,12.37
2019-03-25T01:53:12.872Z,14.57
2019-03-25T01:55:42.513Z,12.47
2019-03-25T01:58:12.110Z,17.40
2019-03-25T02:00:42.011Z,16.47
2019-03-25T02:03:11.608Z,15.37
2019-03-25T02:05:41.241Z,17.40
2019-03-25T02:08:10.997Z,13.57
2019-03-25T02:10:40.616Z,17.67
2019-03-25T02:13:10.205Z,13.47
2019-03-25T02:15:39.832Z,17.13
2019-03-25T02:18:09.441Z,19.07
2019-03-25T02:20:39.097Z,17.80
2019-03-25T02:23:08.913Z,19.47
2019-03-25T02:25:38.822Z,17.03
2019-03-25T02:28:08.419Z,16.97
2019-03-25T02:30:38.215Z,17.17
2019-03-25T02:33:07.795Z,15.27
2019-03-25T02:35:37.417Z,14.73
2019-03-25T02:38:07.087Z,14.00
2019-03-25T02:40:36.713Z,17.47
2019-03-25T02:43:06.443Z,13.27
2019-03-25T02:45:36.058Z,13.20
2019-03-25T02:48:05.894Z,18.37
2019-03-25T02:50:35.488Z,16.30
2019-03-25T02:53:05.111Z,17.57
2019-03-25T02:55:41.516Z,12.97
2019-03-25T02:58:07.027Z,14.33
2019-03-25T03:00:42.745Z,15.63
2019-03-25T03:03:12.366Z,15.20
2019-03-25T03:05:41.980Z,14.30
2019-03-25T03:08:11.636Z,17.33
2019-03-25T03:10:41.337Z,16.07
2019-03-25T03:13:11.016Z,18.73
2019-03-25T03:15:40.604Z,14.13
2019-03-25T03:18:10.236Z,16.13
2019-03-25T03:20:40.240Z,15.37
2019-03-25T03:23:09.853Z,16.40
2019-03-25T03:25:39.447Z,14.33
2019-03-25T03:28:09.281Z,15.67
2019-03-25T03:30:38.876Z,18.90
2019-03-25T03:33:08.493Z,16.97
2019-03-25T03:35:38.112Z,19.13
2019-03-25T03:38:07.703Z,15.53
2019-03-25T03:40:37.964Z,15.40
2019-03-25T03:43:08.383Z,17.53
2019-03-25T03:45:38.009Z,15.00
2019-03-25T03:48:07.629Z,13.00
2019-03-25T03:50:38.015Z,14.73
2019-03-25T03:53:07.709Z,14.57
2019-03-25T03:55:40.075Z,15.17
2019-03-25T03:58:10.386Z,14.23
2019-03-25T04:00:39.990Z,15.00
2019-03-25T04:03:09.583Z,17.07
2019-03-25T04:05:39.203Z,15.30
2019-03-25T04:08:08.791Z,17.07
2019-03-25T04:10:38.677Z,19.13
2019-03-25T04:13:08.269Z,14.47
2019-03-25T04:15:37.886Z,18.77
2019-03-25T04:18:07.674Z,17.47
2019-03-25T04:20:37.297Z,13.90
2019-03-25T04:23:06.917Z,14.87
2019-03-25T04:25:36.516Z,14.37
2019-03-25T04:28:06.217Z,14.67
2019-03-25T04:30:35.787Z,16.43
2019-03-25T04:33:05.413Z,16.17
2019-03-25T04:35:34.994Z,15.07
2019-03-25T04:38:04.619Z,17.17
2019-03-25T04:40:34.206Z,15.70
2019-03-25T04:43:03.851Z,14.03
2019-03-25T04:45:33.441Z,18.37
2019-03-25T04:48:03.034Z,18.10
2019-03-25T04:50:32.655Z,21.50
2019-03-25T04:53:02.260Z,20.17
2019-03-25T04:55:31.890Z,16.33
2019-03-25T04:58:01.497Z,19.17
2019-03-25T05:00:34.482Z,17.07
2019-03-25T05:03:04.452Z,21.47
2019-03-25T05:05:36.136Z,16.10
2019-03-25T05:08:05.747Z,17.83
2019-03-25T05:10:35.404Z,16.93
2019-03-25T05:13:05.185Z,20.40
2019-03-25T05:15:34.766Z,19.30
2019-03-25T05:18:04.528Z,16.57
2019-03-25T05:20:34.117Z,16.83
2019-03-25T05:23:03.811Z,16.33
2019-03-25T05:25:33.435Z,28.63
2019-03-25T05:28:03.024Z,19.90
2019-03-25T05:30:32.615Z,21.60
2019-03-25T05:33:02.302Z,26.17
2019-03-25T05:35:31.931Z,27.13
2019-03-25T05:38:01.549Z,26.07
2019-03-25T05:40:31.143Z,21.97
2019-03-25T05:43:00.778Z,18.00
2019-03-25T05:45:30.464Z,28.20
2019-03-25T05:48:00.121Z,29.33
2019-03-25T05:50:29.702Z,31.63
2019-03-25T05:52:59.318Z,20.47
2019-03-25T05:55:28.910Z,18.77
2019-03-25T05:57:58.536Z,14.13
2019-03-25T06:00:32.470Z,17.20
2019-03-25T06:03:02.067Z,29.37
2019-03-25T06:05:31.713Z,28.20
2019-03-25T06:08:01.498Z,22.97
2019-03-25T06:10:31.170Z,25.13
2019-03-25T06:13:00.784Z,26.33
2019-03-25T06:15:30.800Z,27.63
2019-03-25T06:18:00.423Z,31.50
2019-03-25T06:20:30.023Z,34.23
2019-03-25T06:22:59.648Z,27.67
2019-03-25T06:25:29.248Z,33.13
2019-03-25T06:27:59.265Z,28.87
2019-03-25T06:30:28.881Z,31.47
2019-03-25T06:32:58.556Z,35.63
2019-03-25T06:35:28.160Z,31.50
2019-03-25T06:37:57.804Z,42.30
2019-03-25T06:40:27.477Z,30.27
2019-03-25T06:42:57.105Z,39.50
2019-03-25T06:45:26.793Z,32.17
2019-03-25T06:47:56.416Z,40.87
2019-03-25T06:50:26.021Z,35.70
2019-03-25T06:52:57.275Z,44.93
2019-03-25T06:55:28.580Z,33.10
2019-03-25T06:57:58.208Z,33.37
2019-03-25T07:00:27.901Z,26.93
2019-03-25T07:02:57.590Z,31.83
2019-03-25T07:05:27.297Z,30.63
2019-03-25T07:07:57.003Z,26.20
2019-03-25T07:10:32.535Z,26.80
2019-03-25T07:13:02.700Z,24.07
2019-03-25T07:15:32.592Z,23.83
2019-03-25T07:18:02.374Z,25.90
2019-03-25T07:20:32.259Z,30.17
2019-03-25T07:23:02.051Z,29.03
2019-03-25T07:25:31.864Z,29.83
2019-03-25T07:28:01.648Z,33.27
2019-03-25T08:45:25.450Z,69.80
2019-03-25T08:47:55.163Z,69.63
2019-03-25T08:50:24.943Z,70.20
2019-03-25T08:52:54.718Z,68.47
2019-03-25T08:55:24.409Z,89.47
2019-03-25T08:57:54.103Z,74.83
2019-03-25T09:00:23.886Z,67.63
2019-03-25T09:02:53.625Z,68.67
2019-03-25T09:05:23.302Z,76.20
2019-03-25T09:07:52.939Z,75.33
2019-03-25T09:10:22.751Z,76.30
2019-03-25T09:12:52.534Z,72.38
2019-03-25T09:15:22.371Z,67.37
2019-03-25T09:17:52.067Z,73.63
2019-03-25T09:20:21.844Z,68.90
2019-03-25T09:22:51.650Z,67.57
2019-03-25T09:25:21.635Z,71.10
2019-03-25T09:27:51.380Z,71.00
2019-03-25T09:30:53.581Z,73.23
2019-03-25T09:33:23.638Z,71.63
2019-03-25T09:35:53.530Z,65.33
2019-03-25T09:38:23.240Z,78.67
2019-03-25T09:40:52.952Z,79.73
2019-03-25T09:43:22.731Z,71.03
2019-03-25T09:45:52.480Z,70.57
2019-03-25T09:48:22.163Z,73.63
2019-03-25T09:50:51.969Z,72.83
2019-03-25T09:53:21.780Z,73.13
2019-03-25T09:55:51.524Z,70.43
2019-03-25T09:58:21.301Z,84.40
2019-03-25T10:00:52.168Z,76.20
2019-03-25T10:03:22.127Z,77.47
2019-03-25T10:05:51.974Z,86.93
2019-03-25T10:08:21.714Z,74.80
2019-03-25T10:10:51.384Z,76.20
2019-03-25T10:13:21.122Z,77.93
2019-03-25T10:15:50.791Z,72.83
2019-03-25T10:18:20.501Z,78.53
2019-03-25T10:20:50.245Z,73.77
2019-03-25T10:23:19.946Z,74.00
2019-03-25T10:25:49.644Z,73.73
2019-03-25T10:28:19.420Z,72.73
2019-03-25T10:30:49.198Z,82.63
2019-03-25T10:33:18.932Z,72.17
2019-03-25T10:35:48.839Z,73.73
2019-03-25T10:38:19.809Z,78.17
2019-03-25T10:40:49.784Z,74.80
2019-03-25T10:43:19.519Z,76.33
2019-03-25T10:45:49.345Z,76.17
2019-03-25T10:48:19.149Z,74.37
2019-03-25T10:50:48.852Z,74.80
2019-03-25T10:53:18.545Z,69.20
2019-03-25T10:55:48.183Z,70.33
2019-03-25T10:58:17.896Z,73.90
2019-03-25T11:00:47.709Z,70.97
2019-03-25T11:03:17.522Z,69.97
2019-03-25T11:07:45.050Z,65.73
2019-03-25T11:10:15.294Z,64.47
2019-03-25T11:12:45.041Z,64.53
2019-03-25T11:15:15.387Z,70.27
2019-03-25T11:17:45.060Z,72.03
2019-03-25T11:20:15.246Z,73.03
2019-03-25T11:22:44.989Z,70.50
2019-03-25T11:25:15.375Z,70.80
2019-03-25T11:27:54.097Z,68.73
2019-03-25T11:30:18.535Z,66.87
2019-03-25T11:32:48.611Z,65.47
2019-03-25T11:35:18.423Z,63.17
2019-03-25T11:37:48.100Z,66.13
2019-03-25T11:40:18.066Z,73.43
2019-03-25T11:42:47.745Z,69.57
2019-03-25T11:45:17.699Z,62.77
2019-03-25T11:47:47.384Z,65.57
2019-03-25T11:50:17.224Z,62.63
2019-03-25T11:52:46.969Z,66.63
2019-03-25T11:55:17.825Z,63.93
2019-03-25T11:57:47.639Z,63.07
2019-03-25T12:00:17.484Z,64.93
2019-03-25T12:02:47.152Z,61.93
2019-03-25T12:05:17.236Z,67.53
2019-03-25T12:07:46.954Z,63.87
2019-03-25T12:10:16.945Z,67.57
2019-03-25T12:12:47.124Z,68.33
2019-03-25T12:15:17.073Z,64.70
2019-03-25T12:17:46.746Z,64.97
2019-03-25T12:20:16.724Z,61.27
2019-03-25T12:22:46.503Z,61.17
2019-03-25T12:25:16.252Z,61.83
2019-03-25T12:27:45.901Z,64.53
2019-03-25T12:30:15.979Z,63.57
2019-03-25T12:32:45.805Z,64.60
2019-03-25T12:35:15.751Z,61.77
2019-03-25T12:37:45.426Z,71.37
2019-03-25T12:40:15.244Z,76.67
2019-03-25T12:42:44.948Z,71.57
2019-03-25T12:45:15.138Z,67.93
2019-03-25T12:47:44.892Z,71.40
2019-03-25T12:50:15.039Z,67.03
2019-03-25T12:52:44.708Z,68.70
2019-03-25T12:55:14.756Z,67.00
2019-03-25T12:57:44.663Z,70.07
2019-03-25T13:00:19.044Z,66.86
2019-03-25T13:02:48.748Z,70.03
2019-03-25T13:05:18.423Z,60.87
2019-03-25T13:07:48.059Z,26.93
2019-03-25T13:10:17.871Z,27.03
2019-03-25T13:12:47.539Z,17.47
2019-03-25T13:15:17.348Z,14.20
2019-03-25T13:17:47.029Z,15.73
2019-03-25T13:20:16.661Z,15.10
2019-03-25T13:22:46.290Z,10.67
2019-03-25T13:25:16.026Z,10.73
2019-03-25T13:27:45.732Z,10.47
2019-03-25T13:30:15.906Z,9.90
2019-03-25T13:32:45.532Z,9.00
2019-03-25T13:35:15.337Z,8.27
2019-03-25T13:37:45.002Z,8.63
2019-03-25T13:40:15.579Z,6.93
2019-03-25T13:42:45.253Z,7.03
2019-03-25T13:45:15.125Z,6.37
2019-03-25T13:47:44.792Z,6.70
2019-03-25T13:50:14.593Z,4.80
2019-03-25T13:52:44.341Z,6.00
2019-03-25T13:55:14.227Z,4.37
2019-03-25T13:57:43.930Z,5.20
2019-03-25T14:00:14.170Z,2.93
2019-03-25T14:02:43.845Z,2.90
2019-03-25T14:05:13.684Z,2.80
2019-03-25T14:07:43.417Z,2.00
2019-03-25T14:10:13.364Z,2.60
2019-03-25T14:12:43.028Z,2.07
2019-03-25T14:15:12.796Z,2.00
2019-03-25T14:17:42.479Z,5.70
2019-03-25T14:20:12.520Z,2.97
2019-03-25T14:22:42.158Z,1.97
2019-03-25T14:25:12.050Z,3.63
2019-03-25T14:27:42.072Z,4.13
2019-03-25T14:30:14.841Z,3.17
2019-03-25T14:32:44.707Z,4.40
2019-03-25T14:35:14.478Z,2.83
2019-03-25T14:37:44.219Z,4.27
2019-03-25T14:40:14.063Z,3.87
2019-03-25T14:42:43.701Z,3.97
2019-03-25T14:45:13.682Z,3.33
2019-03-25T14:47:43.314Z,3.43
2019-03-25T14:50:13.490Z,3.97
2019-03-25T14:52:43.193Z,4.40
2019-03-25T14:55:13.176Z,5.93
2019-03-25T14:57:50.248Z,3.94
2019-03-25T15:00:24.949Z,4.60
2019-03-25T15:02:52.277Z,6.27
2019-03-25T15:05:22.188Z,4.27
2019-03-25T15:07:51.981Z,7.03
2019-03-25T15:10:22.045Z,5.37
2019-03-25T15:12:51.854Z,4.70
2019-03-25T15:15:21.618Z,9.00
2019-03-25T15:17:51.289Z,10.67
2019-03-25T15:20:21.087Z,5.70
2019-03-25T15:22:50.675Z,5.77
2019-03-25T15:25:20.296Z,8.60
2019-03-25T15:27:49.881Z,5.37
2019-03-25T15:30:19.906Z,5.57
2019-03-25T15:32:49.573Z,4.53
2019-03-25T15:35:19.192Z,6.67
2019-03-25T15:37:48.883Z,10.87
2019-03-25T15:40:19.670Z,7.73
2019-03-25T15:42:49.336Z,10.70
2019-03-25T15:45:18.999Z,5.20
2019-03-25T15:47:49.034Z,6.07
2019-03-25T15:50:18.896Z,13.80
2019-03-25T15:52:48.512Z,10.00
2019-03-25T15:55:18.134Z,8.10
2019-03-25T15:57:47.967Z,7.00
2019-03-25T16:00:21.905Z,12.07
2019-03-25T16:02:51.496Z,8.43
2019-03-25T16:05:21.129Z,12.13
2019-03-25T16:07:50.790Z,8.10
2019-03-25T16:10:21.779Z,7.03
2019-03-25T16:12:52.156Z,7.03
2019-03-25T16:15:37.525Z,7.60
2019-03-25T16:18:09.130Z,7.83
2019-03-25T16:20:38.797Z,11.43
2019-03-25T16:23:08.416Z,16.10
2019-03-25T16:25:38.063Z,12.53
2019-03-25T16:28:07.659Z,11.03
2019-03-25T16:30:37.276Z,8.90
2019-03-25T16:33:06.872Z,10.87
2019-03-25T16:35:36.495Z,11.53
2019-03-25T16:38:06.359Z,6.87
2019-03-25T16:40:36.135Z,10.77
2019-03-25T16:43:05.833Z,20.23
2019-03-25T16:45:35.467Z,8.00
2019-03-25T16:48:05.058Z,4.97
2019-03-25T16:50:34.649Z,5.33
2019-03-25T16:53:04.269Z,8.50
2019-03-25T16:55:33.859Z,6.17
2019-03-25T16:58:03.484Z,4.40
2019-03-25T17:00:33.076Z,7.73
2019-03-25T17:03:02.701Z,8.43
2019-03-25T17:05:32.295Z,5.67
2019-03-25T17:08:01.948Z,5.77
2019-03-25T17:10:31.543Z,7.17
2019-03-25T17:13:01.170Z,9.33
2019-03-25T17:15:30.763Z,9.90
2019-03-25T17:18:00.389Z,5.83
2019-03-25T17:20:31.264Z,14.37
2019-03-25T17:23:00.926Z,8.27
2019-03-25T17:25:30.551Z,11.00
2019-03-25T17:28:00.216Z,6.07
2019-03-25T17:30:29.888Z,6.70
2019-03-25T17:32:59.524Z,6.97
2019-03-25T17:35:29.102Z,8.40
2019-03-25T17:37:58.722Z,10.73
2019-03-25T17:40:28.370Z,5.87
2019-03-25T17:42:58.082Z,5.27
2019-03-25T17:45:27.670Z,7.40
2019-03-25T17:47:57.352Z,6.73
2019-03-25T17:50:27.012Z,7.83
2019-03-25T17:52:56.641Z,5.90
2019-03-25T17:55:26.298Z,10.17
2019-03-25T17:57:55.916Z,6.67
2019-03-25T18:00:55.758Z,8.37
2019-03-25T18:03:25.355Z,5.67
2019-03-25T18:05:54.989Z,6.40
2019-03-25T18:08:24.569Z,6.37
2019-03-25T18:10:54.360Z,7.10
2019-03-25T18:13:24.044Z,2.43
2019-03-25T18:15:53.629Z,4.93
2019-03-25T18:18:23.240Z,5.60
2019-03-25T18:20:52.829Z,2.90
2019-03-25T18:23:22.513Z,2.20
2019-03-25T18:25:52.089Z,4.57
2019-03-25T18:28:21.691Z,1.67
2019-03-25T18:30:51.309Z,4.27
2019-03-25T18:33:20.933Z,3.07
2019-03-25T18:35:50.519Z,2.93
2019-03-25T18:38:20.099Z,2.33
2019-03-25T18:40:49.707Z,3.23
2019-03-25T18:43:19.384Z,3.07
2019-03-25T18:45:48.960Z,2.67
2019-03-25T18:48:18.541Z,2.80
2019-03-25T18:50:48.223Z,5.50
2019-03-25T18:53:17.886Z,2.47
2019-03-25T18:55:47.547Z,3.40
2019-03-25T18:58:17.196Z,3.60
2019-03-25T19:00:46.836Z,1.60
2019-03-25T19:03:18.427Z,4.63
2019-03-25T19:05:47.927Z,2.47
2019-03-25T19:08:18.447Z,8.60
2019-03-25T19:10:48.035Z,3.00
2019-03-25T19:13:17.652Z,2.27
2019-03-25T19:15:47.355Z,3.60
2019-03-25T19:18:16.964Z,3.60
2019-03-25T19:20:46.519Z,2.07
2019-03-25T19:23:16.122Z,8.27
2019-03-25T19:25:45.707Z,4.00
2019-03-25T19:28:15.325Z,2.13
2019-03-25T19:30:44.905Z,1.93
2019-03-25T19:33:14.524Z,6.77
2019-03-25T19:35:44.242Z,4.50
2019-03-25T19:38:13.893Z,3.83
2019-03-25T19:40:43.580Z,4.53
2019-03-25T19:43:13.210Z,2.80
2019-03-25T19:45:42.832Z,4.10
2019-03-25T19:48:12.417Z,2.57
2019-03-25T19:50:42.029Z,4.00
2019-03-25T19:53:18.985Z,6.43
2019-03-25T19:55:43.024Z,4.20
2019-03-25T19:58:12.634Z,2.13
2019-03-25T20:00:42.630Z,4.17
2019-03-25T20:03:12.278Z,2.83
2019-03-25T20:05:41.847Z,2.90
2019-03-25T20:08:11.529Z,2.63
2019-03-25T20:10:41.475Z,5.63
2019-03-25T20:13:11.032Z,4.27
2019-03-25T20:15:46.577Z,10.37
2019-03-25T20:18:12.043Z,4.57
2019-03-25T20:20:41.620Z,3.97
2019-03-25T20:23:11.224Z,4.10
2019-03-25T20:25:40.835Z,5.77
2019-03-25T20:28:10.508Z,6.00
2019-03-25T20:30:40.177Z,6.27
2019-03-25T20:33:09.789Z,4.07
2019-03-25T20:35:39.432Z,2.73
2019-03-25T20:38:09.504Z,3.27
2019-03-25T20:40:39.117Z,4.93
2019-03-25T20:43:08.753Z,2.10
2019-03-25T20:45:38.349Z,4.57
2019-03-25T20:48:07.947Z,4.60
2019-03-25T20:50:37.552Z,2.07
2019-03-25T20:53:07.144Z,3.53
2019-03-25T20:55:36.762Z,4.03
2019-03-25T20:58:06.417Z,1.83
2019-03-25T21:00:50.787Z,2.73
2019-03-25T21:03:20.446Z,2.93
2019-03-25T21:05:52.075Z,3.30
2019-03-25T21:08:21.759Z,2.23
2019-03-25T21:10:51.391Z,6.80
2019-03-25T21:13:21.196Z,2.97
2019-03-25T21:15:51.010Z,4.37
2019-03-25T21:18:20.621Z,3.10
2019-03-25T21:20:50.251Z,3.23
2019-03-25T21:23:19.940Z,3.17
2019-03-25T21:25:51.311Z,2.77
2019-03-25T21:28:20.999Z,4.33
2019-03-25T21:30:50.806Z,3.33
2019-03-25T21:33:20.427Z,3.97
2019-03-25T21:35:50.002Z,2.80
2019-03-25T21:38:19.780Z,3.90
2019-03-25T21:40:49.436Z,3.73
2019-03-25T21:43:19.080Z,2.17
2019-03-25T21:45:48.783Z,2.60
2019-03-25T21:48:18.421Z,2.87
2019-03-25T21:50:48.131Z,2.97
2019-03-25T21:53:17.689Z,2.63
2019-03-25T21:55:47.330Z,3.20
2019-03-25T21:58:16.910Z,4.03
2019-03-25T22:00:47.118Z,3.13
2019-03-25T22:03:16.741Z,5.77
2019-03-25T22:05:46.360Z,2.13
2019-03-25T22:08:15.949Z,3.63
2019-03-25T22:10:45.533Z,2.47
2019-03-25T22:13:15.146Z,5.30
2019-03-25T22:15:44.728Z,3.90
2019-03-25T22:18:14.353Z,2.73
2019-03-25T22:20:43.934Z,2.13
2019-03-25T22:23:13.549Z,2.00
2019-03-25T22:25:43.137Z,5.10
2019-03-25T22:28:12.761Z,3.07
2019-03-25T22:30:42.346Z,2.80
2019-03-25T22:33:24.878Z,2.73
2019-03-25T22:35:43.339Z,5.63
2019-03-25T22:38:12.951Z,2.57
2019-03-25T22:40:42.587Z,5.77
2019-03-25T22:43:12.175Z,5.40
2019-03-25T22:45:41.766Z,6.50
2019-03-25T22:48:11.436Z,5.00
2019-03-25T22:50:41.048Z,3.60
2019-03-25T22:53:10.638Z,2.80
2019-03-25T22:55:40.225Z,2.90
2019-03-25T22:58:09.832Z,4.70
2019-03-25T23:00:41.217Z,2.27
2019-03-25T23:03:10.801Z,3.17
2019-03-25T23:05:40.417Z,3.50
2019-03-25T23:08:10.179Z,3.43
2019-03-25T23:10:39.762Z,2.70
2019-03-25T23:13:09.433Z,2.33
2019-03-25T23:15:39.107Z,1.87
2019-03-25T23:18:08.812Z,2.70
2019-03-25T23:20:38.486Z,2.30
2019-03-25T23:23:08.149Z,1.93
2019-03-25T23:25:37.825Z,3.57
2019-03-25T23:28:07.496Z,1.97
2019-03-25T23:30:37.194Z,1.30
2019-03-25T23:33:06.943Z,2.10
2019-03-25T23:35:36.573Z,2.33
2019-03-25T23:38:06.199Z,2.33
2019-03-25T23:40:35.867Z,2.00
2019-03-25T23:43:05.496Z,4.07
2019-03-25T23:45:35.236Z,1.53
2019-03-25T23:48:04.873Z,2.00
2019-03-25T23:50:35.301Z,4.73
2019-03-25T23:53:05.211Z,1.17
2019-03-25T23:55:34.847Z,4.77
2019-03-25T23:58:04.595Z,1.97
